createdAt,value
2023-05-12T00:00:35.727Z,986.8
2023-05-12T00:11:13.781Z,986.9
2023-05-12T00:16:32.974Z,986.8
2023-05-12T00:27:11.619Z,986.8
2023-05-12T00:32:30.754Z,986.8
2023-05-12T00:37:50.216Z,986.8
2023-05-12T00:43:09.339Z,986.7
2023-05-12T00:53:50.164Z,986.7
2023-05-12T00:59:07.673Z,986.7
2023-05-12T01:09:46.423Z,986.7
2023-05-12T01:15:05.433Z,986.7
2023-05-12T01:25:45.052Z,986.7
2023-05-12T01:36:23.925Z,986.7
2023-05-12T01:41:43.529Z,986.7
2023-05-12T01:52:21.473Z,986.8
2023-05-12T01:57:40.860Z,986.8
2023-05-12T02:08:18.433Z,986.8
2023-05-12T02:18:57.029Z,986.8
2023-05-12T02:24:16.631Z,986.8
2023-05-12T02:29:36.207Z,986.8
2023-05-12T02:34:55.696Z,986.8
2023-05-12T02:45:34.833Z,986.7
2023-05-12T02:56:13.285Z,986.6
2023-05-12T03:01:32.176Z,986.6
2023-05-12T03:12:10.360Z,986.6
2023-05-12T03:17:29.195Z,986.5
2023-05-12T03:28:07.208Z,986.6
2023-05-12T03:38:45.863Z,986.7
2023-05-12T03:44:04.919Z,986.6
2023-05-12T03:54:43.670Z,986.6
2023-05-12T04:00:02.069Z,986.6
2023-05-12T04:10:40.875Z,986.7
2023-05-12T04:16:00.558Z,986.7
2023-05-12T04:21:19.726Z,986.7
2023-05-12T04:26:38.823Z,986.8
2023-05-12T04:37:17.635Z,986.8
2023-05-12T04:42:37.009Z,986.8
2023-05-12T04:53:15.263Z,986.9
2023-05-12T04:58:35.262Z,986.9
2023-05-12T05:09:12.170Z,987.1
2023-05-12T05:19:58.082Z,987.2
2023-05-12T05:25:09.806Z,987.2
2023-05-12T05:35:48.564Z,987.3
2023-05-12T05:41:07.555Z,987.3
2023-05-12T05:51:46.568Z,987.3
2023-05-12T06:07:45.030Z,987.3
2023-05-12T06:18:23.086Z,987.4
2023-05-12T06:23:41.854Z,987.4
2023-05-12T06:34:20.554Z,987.5
2023-05-12T06:39:40.165Z,987.4
2023-05-12T06:44:59.049Z,987.5
2023-05-12T06:50:17.908Z,987.4
2023-05-12T07:00:56.627Z,987.4
2023-05-12T07:06:24.630Z,987.4
2023-05-12T07:16:54.007Z,987.4
2023-05-12T07:22:13.552Z,987.4
2023-05-12T07:32:51.677Z,987.4
2023-05-12T07:43:30.531Z,987.5
2023-05-12T07:48:49.799Z,987.5
2023-05-12T07:59:28.341Z,987.4
2023-05-12T08:04:47.947Z,987.3
2023-05-12T08:15:26.361Z,987.3
2023-05-12T08:21:18.371Z,987.3
2023-05-12T08:31:56.923Z,987.4
2023-05-12T08:37:16.248Z,987.4
2023-05-12T08:47:55.608Z,987.4
2023-05-12T08:53:13.976Z,987.4
2023-05-12T08:58:40.751Z,987.4
2023-05-12T09:03:52.133Z,987.5
2023-05-12T09:14:31.298Z,987.4
2023-05-12T09:25:08.678Z,987.5
2023-05-12T09:30:28.755Z,987.5
2023-05-12T09:41:06.749Z,987.6
2023-05-12T09:51:46.094Z,987.6
2023-05-12T09:57:05.412Z,987.6
2023-05-12T10:07:42.920Z,987.6
2023-05-12T10:13:02.384Z,987.6
2023-05-12T10:23:39.789Z,987.6
2023-05-12T10:39:37.148Z,987.6
2023-05-12T10:50:16.234Z,987.7
2023-05-12T10:55:35.181Z,987.8
2023-05-12T11:06:14.052Z,987.8
2023-05-12T11:11:33.827Z,987.9
2023-05-12T11:22:09.673Z,987.9
2023-05-12T11:32:48.683Z,987.9
2023-05-12T11:38:07.557Z,987.9
2023-05-12T11:48:46.440Z,988
2023-05-12T11:54:05.593Z,988
2023-05-12T12:04:44.092Z,988.1
2023-05-12T12:15:22.015Z,988.2
2023-05-12T12:20:48.731Z,988.3
2023-05-12T12:31:20.422Z,988.3
2023-05-12T12:36:39.185Z,988.3
2023-05-12T12:43:13.351Z,988.3
2023-05-12T12:47:17.919Z,988.4
2023-05-12T12:57:57.049Z,988.5
2023-05-12T13:03:15.579Z,988.5
2023-05-12T13:13:53.790Z,988.6
2023-05-12T13:19:13.327Z,988.5
2023-05-12T13:29:52.152Z,988.5
2023-05-12T13:35:11.635Z,988.5
2023-05-12T13:45:50.484Z,988.6
2023-05-12T13:56:28.905Z,988.6
2023-05-12T14:01:48.179Z,988.6
2023-05-12T14:12:26.079Z,988.6
2023-05-12T14:23:04.856Z,988.6
2023-05-12T14:28:23.082Z,988.6
2023-05-12T14:39:01.852Z,988.6
2023-05-12T14:44:21.545Z,988.7
2023-05-12T14:54:59.644Z,988.8
2023-05-12T15:00:19.133Z,988.8
2023-05-12T15:05:53.185Z,988.8
2023-05-12T15:10:58.126Z,988.7
2023-05-12T15:21:36.712Z,988.9
2023-05-12T15:26:54.771Z,988.9
2023-05-12T15:37:33.079Z,988.9
2023-05-12T15:42:52.606Z,988.9
2023-05-12T15:48:11.791Z,988.9
2023-05-12T15:53:31.097Z,988.9
2023-05-12T16:04:10.040Z,988.9
2023-05-12T16:14:48.584Z,989
2023-05-12T16:20:07.963Z,988.9
2023-05-12T16:30:46.561Z,988.8
2023-05-12T16:36:05.422Z,988.8
2023-05-12T16:46:44.264Z,988.8
2023-05-12T16:57:22.158Z,988.9
2023-05-12T17:02:41.590Z,988.9
2023-05-12T17:13:18.953Z,989
2023-05-12T17:29:17.010Z,989.1
2023-05-12T17:45:14.439Z,989.1
2023-05-12T17:55:53.708Z,989.2
2023-05-12T18:01:13.160Z,989.3
2023-05-12T18:11:52.269Z,989.3
2023-05-12T18:17:20.587Z,989.3
2023-05-12T18:27:49.414Z,989.4
2023-05-12T18:43:47.443Z,989.4
2023-05-12T18:54:25.011Z,989.5
2023-05-12T18:59:44.520Z,989.6
2023-05-12T19:05:03.366Z,989.6
2023-05-12T19:10:22.713Z,989.7
2023-05-12T19:21:01.248Z,989.9
2023-05-12T19:26:20.002Z,990
2023-05-12T19:36:57.922Z,989.9
2023-05-12T19:42:17.077Z,990
2023-05-12T19:52:55.852Z,990.1
2023-05-12T20:03:34.290Z,990.2
2023-05-12T20:08:53.193Z,990.1
2023-05-12T20:19:32.597Z,990.2
2023-05-12T20:24:51.896Z,990.2
2023-05-12T20:35:30.169Z,990.2
2023-05-12T20:40:50.136Z,990.2
2023-05-12T20:46:09.243Z,990.2
2023-05-12T20:51:28.123Z,990.2
2023-05-12T21:02:07.120Z,990.3
2023-05-12T21:07:26.730Z,990.2
2023-05-12T21:18:05.398Z,990.3
2023-05-12T21:28:45.034Z,990.4
2023-05-12T21:34:02.827Z,990.4
2023-05-12T21:44:40.861Z,990.4
2023-05-12T21:50:00.481Z,990.3
2023-05-12T22:00:39.086Z,990.4
2023-05-12T22:05:58.538Z,990.4
2023-05-12T22:16:41.634Z,990.4
2023-05-12T22:27:16.524Z,990.5
2023-05-12T22:32:36.062Z,990.5
2023-05-12T22:43:23.981Z,990.6
2023-05-12T22:53:54.156Z,990.6
2023-05-12T22:59:13.285Z,990.6
2023-05-12T23:09:52.065Z,990.6
2023-05-12T23:20:39.506Z,990.6
2023-05-12T23:25:49.765Z,990.5
2023-05-12T23:36:27.618Z,990.6
2023-05-12T23:52:25.082Z,990.4
